Terminal Aerodrome Forecast
Issued by NWS

Home | Current Version | Previous Version | Graphics & Text | Print | Product List | Glossary On
Versions: 1 2 3 4 5 6 7 8 9 10 11 12 13 14
467
FTUS43 KTOP 212006 AAA
TAFMHK
TAF AMD
KMHK 212006Z 2120/2218 18015G25KT P6SM SCT030
     FM220500 19012KT P6SM FEW250 WS013/20040KT
     FM221300 19013G23KT P6SM SCT250=

USA.gov is the U.S. government's official web portal to all federal, state and local government web resources and services.